Time;durP1;ratioP1;P1;durP2;ratioP2;P2;SDS_P1;SDS_P2;PMS_P1;PMS_P2;Temp;Humidity;BMP_temperature;BMP_pressure;BME280_temperature;BME280_humidity;BME280_pressure;Samples;Min_cycle;Max_cycle;Signal;HPM_P1;HPM_P2
2022/09/20 00:01:16;;;;;;;1.00;0.85;;;13.20;74.10;;;;;;5111828;28;20030;-67
2022/09/20 00:03:45;;;;;;;0.95;0.85;;;13.20;74.20;;;;;;5110749;28;20084;-67
2022/09/20 00:06:15;;;;;;;1.98;0.70;;;13.20;74.20;;;;;;5092859;28;20031;-67
2022/09/20 00:08:41;;;;;;;1.20;0.75;;;13.20;74.40;;;;;;5089515;28;20131;-67
2022/09/20 00:11:10;;;;;;;1.30;0.85;;;13.20;74.60;;;;;;5111532;28;20019;-67
2022/09/20 00:13:38;;;;;;;2.75;0.80;;;13.20;74.50;;;;;;5093143;28;20096;-68
2022/09/20 00:16:09;;;;;;;3.13;1.00;;;13.20;74.50;;;;;;5111110;28;20046;-68
2022/09/20 00:18:35;;;;;;;1.95;0.63;;;13.20;74.50;;;;;;5110239;28;20114;-67
2022/09/20 00:21:02;;;;;;;0.65;0.65;;;13.20;74.60;;;;;;5109114;28;20035;-67
2022/09/20 00:23:29;;;;;;;0.98;0.60;;;13.20;74.70;;;;;;5092896;28;20031;-66
2022/09/20 00:26:00;;;;;;;1.00;0.85;;;13.20;74.90;;;;;;5110424;28;20031;-67
2022/09/20 00:28:26;;;;;;;0.88;0.80;;;13.20;75.20;;;;;;5110251;28;20036;-68
2022/09/20 00:30:54;;;;;;;1.17;0.50;;;13.20;75.30;;;;;;5106859;28;20024;-67
2022/09/20 00:33:21;;;;;;;1.83;0.93;;;13.20;75.30;;;;;;5091191;28;20026;-67
2022/09/20 00:35:46;;;;;;;4.03;0.70;;;13.20;75.50;;;;;;5110448;28;20138;-66
2022/09/20 00:38:13;;;;;;;0.70;0.70;;;13.30;75.70;;;;;;5110733;28;20032;-66
2022/09/20 00:40:40;;;;;;;1.95;1.00;;;13.30;75.80;;;;;;5085798;28;20028;-66
2022/09/20 00:43:06;;;;;;;1.30;0.70;;;13.30;75.70;;;;;;5110872;28;20032;-66
2022/09/20 00:45:33;;;;;;;2.08;0.90;;;13.30;75.80;;;;;;5092681;28;20510;-66
2022/09/20 00:48:05;;;;;;;0.57;0.57;;;13.30;75.90;;;;;;5110428;28;20043;-66
2022/09/20 00:50:44;;;;;;;;;;;13.40;76.00;;;;;;5108157;28;20061;-66
2022/09/20 00:53:23;;;;;;;0.98;0.82;;;13.30;76.20;;;;;;5110850;28;20219;-67
2022/09/20 00:56:00;;;;;;;3.22;0.63;;;13.30;76.20;;;;;;5108438;28;20024;-67
2022/09/20 00:58:29;;;;;;;4.45;1.13;;;13.40;76.10;;;;;;5110257;28;20024;-68
2022/09/20 01:00:56;;;;;;;3.17;0.80;;;13.40;76.00;;;;;;5108391;28;20054;-68
2022/09/20 01:03:26;;;;;;;1.42;0.65;;;13.40;76.00;;;;;;5106332;28;20063;-67
2022/09/20 01:05:53;;;;;;;1.40;0.95;;;13.50;76.10;;;;;;5106292;28;20027;-68
2022/09/20 01:08:23;;;;;;;1.65;0.77;;;13.50;76.10;;;;;;5109588;28;20052;-67
2022/09/20 01:10:49;;;;;;;0.95;0.80;;;13.50;76.00;;;;;;5110267;28;20034;-67
2022/09/20 01:13:15;;;;;;;3.05;0.90;;;13.50;76.10;;;;;;5110497;28;20378;-68
2022/09/20 01:15:43;;;;;;;7.00;0.90;;;13.60;76.30;;;;;;5086740;28;20058;-67
2022/09/20 01:18:09;;;;;;;1.65;0.80;;;13.60;76.30;;;;;;5091880;28;20027;-67
2022/09/20 01:20:39;;;;;;;1.65;0.30;;;13.60;76.30;;;;;;5094725;28;20043;-68
2022/09/20 01:23:07;;;;;;;0.85;0.60;;;13.60;76.80;;;;;;5106397;28;20360;-68
2022/09/20 01:26:17;;;;;;;5.32;0.60;;;13.70;76.20;;;;;;5096404;28;20027;-68
2022/09/20 01:28:47;;;;;;;0.38;0.38;;;13.70;75.90;;;;;;5074989;28;20541;-68
2022/09/20 01:31:15;;;;;;;1.42;0.82;;;13.70;76.10;;;;;;5085885;28;20478;-67
2022/09/20 01:33:44;;;;;;;0.88;0.68;;;13.70;76.10;;;;;;5109541;28;20008;-68
2022/09/20 01:36:17;;;;;;;0.73;0.70;;;13.70;76.10;;;;;;5089353;28;20398;-68
2022/09/20 01:39:00;;;;;;;0.68;0.40;;;13.70;76.00;;;;;;5109566;28;20772;-67
2022/09/20 01:41:51;;;;;;;0.73;0.70;;;13.80;76.00;;;;;;5106055;28;20081;-67
2022/09/20 01:44:26;;;;;;;1.08;0.70;;;13.80;75.90;;;;;;5109146;28;20054;-67
2022/09/20 01:47:09;;;;;;;4.07;0.95;;;13.80;76.10;;;;;;5089319;28;20027;-68
2022/09/20 01:50:07;;;;;;;1.13;0.85;;;13.70;76.00;;;;;;5107002;28;20038;-67
2022/09/20 01:52:42;;;;;;;1.25;1.00;;;13.70;76.10;;;;;;5095225;28;20382;-68
2022/09/20 01:55:28;;;;;;;3.22;0.88;;;13.70;76.30;;;;;;5109075;28;20023;-68
2022/09/20 01:58:31;;;;;;;0.75;0.57;;;13.60;76.20;;;;;;5057360;28;20789;-67
2022/09/20 02:01:34;;;;;;;3.63;0.73;;;13.60;76.20;;;;;;5100953;28;20019;-68
2022/09/20 02:04:27;;;;;;;3.78;0.98;;;13.60;76.30;;;;;;5108418;28;20016;-67
2022/09/20 02:07:31;;;;;;;1.27;0.75;;;13.60;76.40;;;;;;5108303;28;20031;-67
2022/09/20 02:10:24;;;;;;;3.83;0.80;;;13.60;76.30;;;;;;5099500;28;20040;-68
2022/09/20 02:13:01;;;;;;;0.60;0.60;;;13.60;76.50;;;;;;5094828;28;20059;-68
2022/09/20 02:15:50;;;;;;;1.48;0.82;;;13.60;76.40;;;;;;5107466;28;20072;-68
2022/09/20 02:18:52;;;;;;;1.45;0.45;;;13.50;76.40;;;;;;5089500;28;20165;-68
2022/09/20 02:21:41;;;;;;;1.90;0.80;;;13.60;76.50;;;;;;5106692;28;20031;-67
2022/09/20 02:24:34;;;;;;;0.47;0.43;;;13.50;76.40;;;;;;5109494;28;20099;-68
2022/09/20 02:27:18;;;;;;;0.60;0.40;;;13.50;76.40;;;;;;5108372;28;20024;-68
2022/09/20 02:29:56;;;;;;;1.15;0.60;;;13.50;76.50;;;;;;5104247;28;20034;-68
2022/09/20 02:32:43;;;;;;;0.93;0.43;;;13.50;76.60;;;;;;5107044;28;20059;-67
2022/09/20 02:35:23;;;;;;;1.08;0.57;;;13.50;76.60;;;;;;5109016;28;20027;-67
2022/09/20 02:37:58;;;;;;;1.23;0.82;;;13.50;76.70;;;;;;5109112;28;20020;-67
2022/09/20 02:40:54;;;;;;;1.75;0.90;;;13.50;76.70;;;;;;5109069;28;20104;-67
2022/09/20 02:43:58;;;;;;;2.00;0.70;;;13.60;76.70;;;;;;5108932;28;20019;-67
2022/09/20 02:46:52;;;;;;;0.55;0.32;;;13.60;76.70;;;;;;5088165;28;20089;-68
2022/09/20 02:49:54;;;;;;;2.08;0.88;;;13.60;76.70;;;;;;5059517;28;20051;-67
2022/09/20 02:52:37;;;;;;;9.43;1.13;;;13.60;76.80;;;;;;5112298;28;20071;-68
2022/09/20 02:55:31;;;;;;;1.10;0.68;;;13.60;76.90;;;;;;5113436;28;20028;-67
2022/09/20 02:58:38;;;;;;;1.00;0.77;;;13.60;76.90;;;;;;5101519;28;20496;-67
2022/09/20 03:01:22;;;;;;;1.98;0.88;;;13.60;76.90;;;;;;5101791;28;20375;-67
2022/09/20 03:04:14;;;;;;;0.77;0.77;;;13.60;76.90;;;;;;5112155;28;20027;-67
2022/09/20 03:06:52;;;;;;;;;;;13.60;76.90;;;;;;5103768;28;20028;-68
2022/09/20 03:09:36;;;;;;;0.52;0.50;;;13.60;77.10;;;;;;5112318;28;20014;-66
2022/09/20 03:12:24;;;;;;;1.52;0.82;;;13.50;77.10;;;;;;5092041;28;20020;-68
2022/09/20 03:14:55;;;;;;;1.35;0.40;;;13.60;77.00;;;;;;5102323;28;20024;-67
2022/09/20 03:17:57;;;;;;;0.65;0.55;;;13.60;77.20;;;;;;5112040;28;20027;-66
2022/09/20 03:20:34;;;;;;;2.00;0.50;;;13.60;77.20;;;;;;5107907;28;20039;-68
2022/09/20 03:23:29;;;;;;;3.45;0.82;;;13.60;77.20;;;;;;5110365;28;20031;-68
2022/09/20 03:26:20;;;;;;;1.70;0.90;;;13.60;77.10;;;;;;5091985;28;20122;-68
2022/09/20 03:29:15;;;;;;;1.52;0.68;;;13.60;77.20;;;;;;5081120;28;20031;-67
2022/09/20 03:32:00;;;;;;;4.25;0.95;;;13.60;77.00;;;;;;5111671;28;20034;-66
2022/09/20 03:34:42;;;;;;;1.08;0.57;;;13.60;77.10;;;;;;5104394;28;20038;-66
2022/09/20 03:37:20;;;;;;;1.35;0.60;;;13.60;77.00;;;;;;5080135;28;20020;-66
2022/09/20 03:40:16;;;;;;;1.35;0.70;;;13.50;77.00;;;;;;5112220;28;20077;-66
2022/09/20 03:42:47;;;;;;;1.63;0.40;;;13.50;77.00;;;;;;5100296;28;20027;-66
2022/09/20 03:45:13;;;;;;;1.25;0.30;;;13.40;77.10;;;;;;5108329;28;20027;-66
2022/09/20 03:48:06;;;;;;;3.80;0.90;;;13.40;77.20;;;;;;5107623;28;20488;-68
2022/09/20 03:50:36;;;;;;;;;;;13.40;77.20;;;;;;5112022;28;20011;-68
2022/09/20 03:53:04;;;;;;;0.98;0.47;;;13.30;77.40;;;;;;5112188;28;19908;-67
2022/09/20 03:55:36;;;;;;;1.80;0.80;;;13.30;77.50;;;;;;5111335;28;20028;-67
2022/09/20 03:58:02;;;;;;;0.75;0.70;;;13.30;77.40;;;;;;5083287;28;20034;-67
2022/09/20 04:00:55;;;;;;;1.70;0.90;;;13.40;77.50;;;;;;5109867;28;20386;-67
2022/09/20 04:03:44;;;;;;;0.73;0.50;;;13.40;77.50;;;;;;5100538;28;20027;-67
2022/09/20 04:06:37;;;;;;;0.82;0.63;;;13.40;77.50;;;;;;5102719;28;20089;-68
2022/09/20 04:09:30;;;;;;;1.17;0.30;;;13.40;77.50;;;;;;5086313;28;20056;-68
2022/09/20 04:12:25;;;;;;;1.65;0.68;;;13.40;77.50;;;;;;5089461;28;20036;-66
2022/09/20 04:15:30;;;;;;;1.45;0.70;;;13.40;77.70;;;;;;5080832;28;20032;-68
2022/09/20 04:18:23;;;;;;;0.45;0.45;;;13.40;77.60;;;;;;5077928;28;20128;-68
2022/09/20 04:20:59;;;;;;;0.43;0.30;;;13.40;77.50;;;;;;5080085;28;20079;-67
2022/09/20 04:23:40;;;;;;;4.00;0.80;;;13.40;77.70;;;;;;5083503;28;20115;-68
2022/09/20 04:26:06;;;;;;;0.70;0.45;;;13.40;77.60;;;;;;5083659;28;20036;-68
2022/09/20 04:28:51;;;;;;;1.70;0.88;;;13.30;78.10;;;;;;5087920;28;20032;-68
2022/09/20 04:31:52;;;;;;;0.73;0.50;;;13.30;77.40;;;;;;5084501;28;20486;-68
2022/09/20 04:37:32;;;;;;;0.80;0.47;;;13.20;77.50;;;;;;5087953;28;20032;-67
2022/09/20 04:40:22;;;;;;;0.90;0.70;;;13.10;77.50;;;;;;5084951;28;20023;-67
2022/09/20 04:42:57;;;;;;;1.17;0.47;;;13.10;77.60;;;;;;5084203;28;20023;-67
2022/09/20 04:45:42;;;;;;;0.50;0.50;;;13.00;77.70;;;;;;5080722;28;20024;-67
2022/09/20 04:48:34;;;;;;;0.80;0.77;;;13.00;77.60;;;;;;5087517;28;20521;-67
2022/09/20 04:51:37;;;;;;;1.25;0.30;;;13.00;77.70;;;;;;5083699;28;20466;-66
2022/09/20 04:54:27;;;;;;;1.80;0.70;;;13.00;77.80;;;;;;5088714;28;20024;-67
2022/09/20 04:57:14;;;;;;;2.35;0.40;;;12.90;78.00;;;;;;5081649;28;20024;-68
2022/09/20 05:00:01;;;;;;;1.75;0.82;;;13.00;78.10;;;;;;5084374;28;20526;-67
2022/09/20 05:02:41;;;;;;;3.75;0.68;;;13.00;78.30;;;;;;5079290;28;20050;-67
2022/09/20 05:05:25;;;;;;;1.42;0.93;;;13.00;78.30;;;;;;5080322;28;20028;-67
2022/09/20 05:08:13;;;;;;;1.23;0.80;;;13.10;78.40;;;;;;5090670;28;20556;-69
2022/09/20 05:11:17;;;;;;;0.80;0.60;;;13.10;78.40;;;;;;5109601;28;20065;-67
2022/09/20 05:14:11;;;;;;;2.25;1.48;;;13.20;78.30;;;;;;5083541;28;20558;-69
2022/09/20 05:17:10;;;;;;;2.65;0.88;;;13.20;78.30;;;;;;5099699;27;20103;-67
2022/09/20 05:20:01;;;;;;;1.27;0.98;;;13.20;78.30;;;;;;5048988;28;20035;-69
2022/09/20 05:22:52;;;;;;;0.70;0.68;;;13.30;78.40;;;;;;5090402;28;20039;-69
2022/09/20 05:25:37;;;;;;;2.03;1.02;;;13.30;78.40;;;;;;5105984;28;20404;-68
2022/09/20 05:28:20;;;;;;;3.63;1.00;;;13.30;78.40;;;;;;5109676;28;20030;-67
2022/09/20 05:30:46;;;;;;;1.08;0.60;;;13.30;78.50;;;;;;5102494;28;20060;-69
2022/09/20 05:33:39;;;;;;;1.10;0.60;;;13.30;78.50;;;;;;5108405;28;20020;-68
2022/09/20 05:36:11;;;;;;;;;;;13.30;78.40;;;;;;5107869;28;20583;-68
2022/09/20 05:38:47;;;;;;;1.67;0.60;;;13.30;78.60;;;;;;5108691;28;19976;-68
2022/09/20 05:42:53;;;;;;;3.95;1.23;;;13.30;78.20;;;;;;5053697;27;1325774;-68
2022/09/20 05:45:37;;;;;;;0.90;0.63;;;13.30;78.60;;;;;;5075832;28;20040;-69
2022/09/20 05:48:14;;;;;;;1.42;0.68;;;13.30;78.60;;;;;;5061553;28;20538;-69
2022/09/20 05:50:52;;;;;;;0.60;0.60;;;13.30;78.70;;;;;;5080406;28;20024;-69
2022/09/20 05:53:46;;;;;;;1.45;0.98;;;13.30;78.60;;;;;;5062305;28;20035;-69
2022/09/20 05:56:19;;;;;;;1.05;0.60;;;13.30;78.60;;;;;;5085009;28;20086;-69
2022/09/20 05:58:59;;;;;;;7.32;1.10;;;13.30;78.60;;;;;;5084443;28;20058;-68
2022/09/20 06:01:39;;;;;;;1.13;0.90;;;13.20;78.60;;;;;;5081476;28;20048;-68
2022/09/20 06:04:28;;;;;;;1.98;0.85;;;13.20;78.60;;;;;;5083073;28;20051;-66
2022/09/20 06:07:08;;;;;;;1.05;0.55;;;13.20;78.60;;;;;;5084486;28;20487;-66
2022/09/20 06:09:51;;;;;;;2.40;0.80;;;13.20;78.70;;;;;;5083533;28;20510;-66
2022/09/20 06:12:35;;;;;;;0.50;0.40;;;13.10;78.70;;;;;;5082220;28;20056;-67
2022/09/20 06:15:25;;;;;;;3.33;1.15;;;13.10;78.70;;;;;;5075170;28;20034;-66
2022/09/20 06:18:13;;;;;;;0.95;0.77;;;13.20;78.60;;;;;;5074602;28;20035;-66
2022/09/20 06:21:01;;;;;;;3.50;1.10;;;13.20;78.60;;;;;;5082726;28;20036;-67
2022/09/20 06:23:26;;;;;;;1.98;1.30;;;13.20;78.40;;;;;;5077936;28;20021;-67
2022/09/20 06:25:58;;;;;;;1.30;0.93;;;13.20;78.40;;;;;;5084402;28;20028;-68
2022/09/20 06:28:34;;;;;;;3.35;1.23;;;13.20;78.40;;;;;;5085126;28;20502;-67
2022/09/20 06:31:06;;;;;;;3.03;0.88;;;13.20;78.50;;;;;;5063884;28;20343;-68
2022/09/20 06:33:31;;;;;;;2.50;1.02;;;13.20;78.60;;;;;;5082930;28;20055;-68
2022/09/20 06:41:46;;;;;;;1.05;0.70;;;13.40;78.50;;;;;;5076715;28;20043;-67
2022/09/20 06:44:11;;;;;;;1.95;0.90;;;13.50;78.40;;;;;;5067433;28;20024;-68
2022/09/20 06:46:40;;;;;;;2.95;0.88;;;13.50;78.30;;;;;;5085374;28;20390;-68
2022/09/20 06:49:08;;;;;;;0.68;0.57;;;13.50;78.30;;;;;;5082371;28;20534;-69
2022/09/20 06:51:36;;;;;;;1.95;0.77;;;13.70;78.20;;;;;;5084130;28;20479;-68
2022/09/20 06:54:03;;;;;;;1.95;0.55;;;13.70;78.10;;;;;;5045399;28;20035;-68
2022/09/20 06:56:34;;;;;;;0.43;0.43;;;13.70;77.90;;;;;;5064973;28;20115;-68
2022/09/20 06:58:59;;;;;;;0.55;0.55;;;13.80;77.90;;;;;;5069116;28;20079;-68
2022/09/20 07:01:25;;;;;;;4.05;1.02;;;13.80;77.90;;;;;;5035793;28;20056;-68
2022/09/20 07:03:51;;;;;;;1.00;0.73;;;13.80;77.90;;;;;;5070703;28;20029;-69
2022/09/20 07:06:18;;;;;;;6.10;1.17;;;13.80;77.80;;;;;;5051429;28;20048;-68
2022/09/20 07:08:45;;;;;;;0.50;0.50;;;13.80;77.80;;;;;;5052587;28;20067;-68
2022/09/20 07:11:15;;;;;;;3.80;1.05;;;13.90;77.70;;;;;;5034653;28;20079;-68
2022/09/20 07:13:44;;;;;;;1.10;0.55;;;13.90;77.60;;;;;;5068280;28;20491;-68
2022/09/20 07:16:13;;;;;;;1.00;0.70;;;13.90;77.70;;;;;;5069469;28;20451;-68
2022/09/20 07:18:40;;;;;;;1.75;0.73;;;13.80;78.00;;;;;;5070017;28;20032;-68
2022/09/20 07:21:13;;;;;;;0.70;0.60;;;13.70;78.20;;;;;;5069370;28;20031;-67
2022/09/20 07:23:38;;;;;;;2.20;0.77;;;13.60;78.40;;;;;;5069928;28;20112;-67
2022/09/20 07:26:05;;;;;;;0.70;0.70;;;13.50;78.70;;;;;;5070224;28;20107;-67
2022/09/20 07:28:33;;;;;;;0.70;0.70;;;13.50;78.90;;;;;;5052066;28;20107;-67
2022/09/20 07:30:59;;;;;;;0.88;0.50;;;13.50;79.20;;;;;;5069561;28;20467;-67
2022/09/20 07:33:25;;;;;;;2.40;1.27;;;13.60;79.10;;;;;;5053747;28;20479;-67
2022/09/20 07:35:53;;;;;;;2.28;0.75;;;13.70;79.00;;;;;;5050806;28;20089;-67
2022/09/20 07:38:21;;;;;;;0.70;0.50;;;13.70;78.90;;;;;;5070761;28;20487;-67
2022/09/20 07:40:55;;;;;;;4.85;1.15;;;13.80;79.50;;;;;;5068415;28;20024;-67
2022/09/20 07:43:21;;;;;;;0.73;0.73;;;13.90;78.80;;;;;;5070446;28;20520;-67
2022/09/20 07:45:54;;;;;;;0.55;0.40;;;14.00;78.80;;;;;;5051626;28;20028;-67
2022/09/20 07:48:24;;;;;;;3.65;1.15;;;14.10;78.80;;;;;;5070427;28;20479;-68
2022/09/20 07:50:56;;;;;;;0.82;0.65;;;14.20;78.80;;;;;;5065746;28;20032;-68
2022/09/20 07:53:22;;;;;;;2.07;0.30;;;14.20;78.70;;;;;;5068506;28;20027;-68
2022/09/20 07:56:10;;;;;;;0.40;0.40;;;14.30;78.80;;;;;;5051453;28;20316;-68
2022/09/20 07:58:36;;;;;;;1.55;0.63;;;14.40;78.60;;;;;;5068708;28;20399;-68
2022/09/20 08:01:05;;;;;;;3.25;1.13;;;14.40;78.70;;;;;;5058748;28;20029;-68
2022/09/20 08:03:32;;;;;;;0.88;0.55;;;14.40;78.70;;;;;;5070356;28;20482;-68
2022/09/20 08:06:07;;;;;;;0.60;0.43;;;14.40;78.50;;;;;;5069339;28;20427;-67
2022/09/20 08:08:35;;;;;;;1.42;0.63;;;14.50;78.50;;;;;;5068668;28;20059;-68
2022/09/20 08:11:11;;;;;;;0.65;0.40;;;14.50;78.50;;;;;;5060167;28;20160;-68
2022/09/20 08:13:45;;;;;;;1.00;0.50;;;14.60;78.40;;;;;;5063433;28;20028;-68
2022/09/20 08:16:12;;;;;;;6.72;0.75;;;14.60;78.40;;;;;;5049485;28;20025;-68
2022/09/20 08:18:39;;;;;;;1.65;0.80;;;14.70;78.50;;;;;;5063089;28;20041;-68
2022/09/20 08:21:09;;;;;;;0.73;0.68;;;14.70;78.30;;;;;;5067397;28;20136;-67
2022/09/20 08:23:35;;;;;;;1.77;0.70;;;14.80;78.30;;;;;;5047979;28;20037;-68
2022/09/20 08:26:02;;;;;;;1.27;0.80;;;14.90;78.20;;;;;;5066004;28;20488;-68
2022/09/20 08:28:31;;;;;;;1.15;0.47;;;15.00;77.90;;;;;;5051270;28;20066;-68
2022/09/20 08:31:05;;;;;;;0.60;0.60;;;15.10;77.80;;;;;;5066915;28;20124;-68
2022/09/20 08:33:31;;;;;;;0.70;0.70;;;15.20;77.70;;;;;;5064258;28;20112;-68
2022/09/20 08:35:58;;;;;;;2.58;0.60;;;15.30;77.70;;;;;;5064530;28;20032;-69
2022/09/20 08:38:26;;;;;;;2.10;0.70;;;15.30;77.50;;;;;;5047017;28;20036;-68
2022/09/20 08:41:02;;;;;;;0.70;0.40;;;15.50;77.30;;;;;;5051394;28;20598;-69
2022/09/20 08:43:34;;;;;;;1.33;0.88;;;15.60;77.10;;;;;;5063616;28;20476;-70
2022/09/20 08:46:03;;;;;;;0.63;0.60;;;15.70;76.90;;;;;;5065303;28;20020;-69
2022/09/20 08:48:32;;;;;;;3.53;0.50;;;16.00;76.70;;;;;;5065883;28;20056;-69
2022/09/20 08:51:00;;;;;;;0.47;0.47;;;16.10;76.30;;;;;;5068080;28;20039;-68
2022/09/20 08:53:27;;;;;;;1.17;0.70;;;16.30;75.60;;;;;;5068163;28;20027;-68
2022/09/20 08:55:56;;;;;;;0.82;0.65;;;16.40;75.00;;;;;;5051316;28;20051;-68
2022/09/20 08:58:23;;;;;;;0.80;0.63;;;16.40;74.40;;;;;;5067395;28;20468;-69
2022/09/20 09:00:48;;;;;;;0.82;0.70;;;16.40;74.40;;;;;;5057709;28;20123;-68
2022/09/20 09:03:16;;;;;;;0.68;0.50;;;16.40;74.50;;;;;;5033993;28;20111;-69
2022/09/20 09:05:49;;;;;;;1.27;0.75;;;16.40;74.60;;;;;;5068640;28;20058;-69
2022/09/20 09:08:17;;;;;;;;;;;16.40;74.80;;;;;;5069721;28;20009;-69
2022/09/20 09:10:55;;;;;;;1.02;0.93;;;16.50;74.90;;;;;;5050898;28;19915;-69
2022/09/20 09:13:33;;;;;;;0.57;0.52;;;16.50;74.20;;;;;;5066559;28;21114;-68
2022/09/20 09:16:11;;;;;;;0.55;0.47;;;16.50;74.40;;;;;;5050104;28;20059;-69
2022/09/20 09:18:40;;;;;;;0.68;0.50;;;16.60;74.10;;;;;;5066319;28;20074;-69
2022/09/20 09:21:09;;;;;;;1.55;0.32;;;16.60;73.30;;;;;;5060845;28;20107;-69
2022/09/20 09:23:41;;;;;;;0.40;0.40;;;16.70;73.50;;;;;;5047637;28;20140;-68
2022/09/20 09:26:21;;;;;;;1.40;0.70;;;16.70;73.30;;;;;;5068784;28;20021;-69
2022/09/20 09:29:20;;;;;;;0.95;0.60;;;16.70;73.80;;;;;;5067688;28;20147;-69
2022/09/20 09:31:48;;;;;;;1.73;0.60;;;16.60;72.20;;;;;;5062870;28;20039;-67
2022/09/20 09:34:29;;;;;;;1.65;0.50;;;16.60;72.20;;;;;;5041233;28;20108;-68
2022/09/20 09:36:55;;;;;;;0.50;0.50;;;16.50;72.20;;;;;;5059532;28;20044;-68
2022/09/20 09:39:31;;;;;;;1.08;0.65;;;16.50;72.30;;;;;;5061791;28;20039;-67
2022/09/20 09:42:01;;;;;;;1.48;0.43;;;16.50;72.30;;;;;;5059113;28;20053;-68
2022/09/20 09:44:32;;;;;;;0.52;0.52;;;16.50;71.70;;;;;;5063066;28;20391;-68
2022/09/20 09:46:58;;;;;;;0.20;0.20;;;16.50;71.80;;;;;;5048196;28;20012;-68
2022/09/20 09:49:32;;;;;;;0.30;0.30;;;16.70;71.70;;;;;;5047832;28;20032;-67
2022/09/20 09:52:12;;;;;;;1.17;0.47;;;16.90;71.00;;;;;;5063817;28;20605;-67
2022/09/20 09:54:42;;;;;;;0.80;0.52;;;17.10;70.50;;;;;;5066710;28;20016;-67
2022/09/20 09:57:19;;;;;;;0.30;0.30;;;17.20;69.70;;;;;;5049410;28;20087;-67
2022/09/20 10:00:11;;;;;;;0.70;0.60;;;17.20;67.90;;;;;;5047867;28;20025;-68
2022/09/20 10:02:55;;;;;;;0.50;0.50;;;17.20;68.40;;;;;;5046843;28;20033;-69
2022/09/20 10:05:27;;;;;;;1.08;0.40;;;17.30;67.90;;;;;;5062023;28;20037;-68
2022/09/20 10:08:17;;;;;;;0.75;0.75;;;17.30;67.70;;;;;;5068740;28;20013;-68
2022/09/20 10:11:01;;;;;;;0.50;0.50;;;17.40;67.30;;;;;;5055472;28;20052;-67
2022/09/20 10:13:34;;;;;;;0.38;0.38;;;17.50;67.50;;;;;;5056135;28;20519;-67
2022/09/20 10:16:28;;;;;;;2.47;0.40;;;17.70;67.30;;;;;;5061377;28;20031;-68
2022/09/20 10:19:02;;;;;;;1.00;0.60;;;18.10;66.40;;;;;;5051254;28;20029;-68
2022/09/20 10:22:02;;;;;;;0.40;0.40;;;18.30;65.20;;;;;;5063488;28;20594;-68
2022/09/20 10:25:18;;;;;;;0.32;0.32;;;18.40;63.10;;;;;;5053915;28;20024;-67
2022/09/20 10:28:08;;;;;;;0.90;0.43;;;18.30;63.60;;;;;;5036204;28;20036;-67
2022/09/20 10:30:57;;;;;;;0.30;0.30;;;18.40;63.80;;;;;;5054652;28;20035;-68
2022/09/20 10:33:51;;;;;;;0.85;0.47;;;18.50;62.90;;;;;;5056433;28;20115;-67
2022/09/20 10:36:37;;;;;;;0.90;0.32;;;18.60;61.80;;;;;;5063094;28;20081;-68
2022/09/20 10:39:30;;;;;;;0.38;0.35;;;18.70;60.90;;;;;;5050049;28;20111;-68
2022/09/20 10:45:29;;;;;;;0.55;0.40;;;18.70;57.90;;;;;;5062669;28;20039;-68
2022/09/20 10:48:32;;;;;;;0.40;0.35;;;18.60;58.30;;;;;;5060055;28;20025;-68
2022/09/20 10:50:57;;;;;;;;;;;18.60;58.00;;;;;;5058145;28;20414;-68
2022/09/20 10:53:45;;;;;;;0.47;0.35;;;18.40;55.90;;;;;;5058048;28;19921;-67
2022/09/20 10:56:36;;;;;;;0.93;0.60;;;18.30;57.60;;;;;;5061962;28;20028;-67
2022/09/20 10:59:15;;;;;;;2.38;0.88;;;18.30;58.60;;;;;;5063337;28;20431;-67
2022/09/20 11:02:21;;;;;;;0.38;0.38;;;18.30;58.20;;;;;;5063145;28;20375;-68
2022/09/20 11:05:12;;;;;;;0.77;0.65;;;18.30;57.70;;;;;;5065536;28;20020;-67
2022/09/20 11:08:07;;;;;;;0.40;0.40;;;18.20;58.00;;;;;;5069119;28;20479;-67
2022/09/20 11:11:01;;;;;;;0.73;0.70;;;18.30;58.10;;;;;;5065372;28;20040;-67
2022/09/20 11:13:38;;;;;;;5.10;0.82;;;18.30;58.60;;;;;;5069000;28;20039;-68
2022/09/20 11:16:18;;;;;;;0.30;0.30;;;18.20;58.20;;;;;;5066583;28;20025;-68
2022/09/20 11:18:57;;;;;;;0.45;0.32;;;18.20;58.80;;;;;;5066258;28;20052;-68
2022/09/20 11:21:49;;;;;;;0.40;0.40;;;18.30;59.10;;;;;;5067996;28;20029;-68
2022/09/20 11:24:27;;;;;;;0.68;0.40;;;18.30;58.90;;;;;;5062498;28;20041;-68
2022/09/20 11:27:14;;;;;;;0.40;0.30;;;18.30;58.20;;;;;;5065927;28;20506;-68
2022/09/20 11:29:49;;;;;;;1.23;0.47;;;18.30;58.90;;;;;;5062140;28;20028;-68
2022/09/20 11:32:22;;;;;;;0.35;0.35;;;18.50;58.80;;;;;;5066941;28;20118;-68
2022/09/20 11:34:54;;;;;;;4.35;0.50;;;18.60;58.50;;;;;;5069270;28;20089;-68
2022/09/20 11:37:21;;;;;;;;;;;18.70;58.20;;;;;;5070707;28;20031;-68
2022/09/20 11:39:54;;;;;;;0.60;0.60;;;18.90;58.00;;;;;;5070374;28;20204;-68
2022/09/20 11:42:26;;;;;;;0.60;0.50;;;19.00;57.50;;;;;;5069855;28;20045;-68
2022/09/20 11:44:53;;;;;;;0.85;0.40;;;19.00;56.30;;;;;;5070351;28;20387;-68
2022/09/20 11:47:34;;;;;;;1.25;0.77;;;19.00;56.70;;;;;;5069522;28;20698;-68
2022/09/20 11:50:34;;;;;;;0.45;0.43;;;19.10;56.80;;;;;;5070456;28;20025;-68
2022/09/20 11:53:23;;;;;;;0.55;0.40;;;19.30;57.20;;;;;;5068302;28;20487;-68
2022/09/20 11:56:09;;;;;;;0.70;0.32;;;19.80;56.90;;;;;;5067304;28;20098;-69
2022/09/20 11:58:50;;;;;;;0.77;0.60;;;20.00;54.80;;;;;;5064810;28;20085;-68
2022/09/20 12:01:31;;;;;;;0.40;0.40;;;19.90;54.80;;;;;;5062905;28;20028;-68
2022/09/20 12:04:12;;;;;;;1.85;1.27;;;19.80;54.80;;;;;;5066680;28;20552;-68
2022/09/20 12:06:41;;;;;;;2.75;0.82;;;19.60;54.90;;;;;;5051064;28;20173;-68
2022/09/20 12:09:24;;;;;;;0.47;0.30;;;19.30;55.30;;;;;;5045521;28;20016;-67
2022/09/20 12:11:51;;;;;;;0.35;0.35;;;19.10;55.80;;;;;;5051193;28;20489;-68
2022/09/20 12:14:26;;;;;;;4.07;0.60;;;18.90;55.90;;;;;;5048396;28;20498;-68
2022/09/20 12:16:52;;;;;;;0.40;0.40;;;18.80;56.10;;;;;;5067093;28;20081;-68
2022/09/20 12:19:33;;;;;;;0.50;0.50;;;18.70;56.60;;;;;;5069194;28;20569;-68
2022/09/20 12:21:58;;;;;;;0.88;0.55;;;18.60;56.60;;;;;;5049619;28;20078;-68
2022/09/20 12:24:32;;;;;;;1.35;0.20;;;18.70;56.40;;;;;;5068501;28;20570;-68
2022/09/20 12:27:22;;;;;;;1.55;0.85;;;18.90;56.40;;;;;;5069368;28;20091;-68
2022/09/20 12:30:17;;;;;;;0.32;0.32;;;19.50;56.00;;;;;;5068658;28;20025;-67
2022/09/20 12:32:46;;;;;;;0.30;0.30;;;19.80;53.50;;;;;;5045056;28;20466;-67
2022/09/20 12:35:43;;;;;;;0.32;0.32;;;19.70;53.40;;;;;;5062772;28;20035;-66
2022/09/20 12:38:20;;;;;;;0.40;0.40;;;19.60;54.00;;;;;;5060494;28;20039;-67
2022/09/20 12:41:07;;;;;;;1.52;0.65;;;19.30;53.80;;;;;;5067681;28;20032;-66
2022/09/20 12:43:35;;;;;;;0.75;0.43;;;19.10;55.00;;;;;;5069754;28;20649;-66
2022/09/20 12:46:01;;;;;;;0.90;0.47;;;18.70;55.80;;;;;;5068125;28;20009;-67
2022/09/20 12:48:33;;;;;;;0.40;0.40;;;18.50;56.30;;;;;;5069750;28;20028;-67
2022/09/20 12:54:08;;;;;;;0.30;0.30;;;18.20;57.60;;;;;;5067425;28;20044;-66
2022/09/20 12:56:37;;;;;;;9.68;0.90;;;18.30;58.20;;;;;;5051310;28;20074;-67
2022/09/20 12:59:06;;;;;;;0.75;0.60;;;18.30;58.40;;;;;;5067637;28;20107;-67
2022/09/20 13:01:35;;;;;;;0.68;0.30;;;18.50;58.40;;;;;;5068892;28;20051;-67
2022/09/20 13:04:59;;;;;;;1.10;0.40;;;18.60;58.40;;;;;;5063872;28;20464;-67
2022/09/20 13:07:39;;;;;;;0.50;0.50;;;18.80;57.90;;;;;;5060741;28;20044;-67
2022/09/20 13:10:28;;;;;;;0.45;0.32;;;19.00;57.40;;;;;;5069105;28;20012;-67
2022/09/20 13:12:59;;;;;;;3.20;0.47;;;19.10;57.20;;;;;;5069016;28;20475;-67
2022/09/20 13:15:26;;;;;;;1.08;0.55;;;19.10;56.90;;;;;;5069059;28;20028;-67
2022/09/20 13:17:55;;;;;;;4.22;0.40;;;19.30;55.90;;;;;;5048559;28;20419;-67
2022/09/20 13:20:24;;;;;;;1.80;0.40;;;19.50;55.30;;;;;;5062617;28;20025;-67
2022/09/20 13:22:52;;;;;;;4.80;0.50;;;19.80;54.20;;;;;;5068833;28;20020;-67
2022/09/20 13:25:21;;;;;;;1.15;0.40;;;19.80;53.90;;;;;;5050664;28;20103;-67
2022/09/20 13:28:08;;;;;;;2.17;0.55;;;19.70;54.20;;;;;;5068390;28;20041;-67
2022/09/20 13:30:34;;;;;;;1.38;0.82;;;19.50;54.50;;;;;;5065631;28;20054;-67
2022/09/20 13:33:23;;;;;;;0.73;0.32;;;19.30;55.30;;;;;;5068485;28;20021;-67
2022/09/20 13:35:53;;;;;;;0.75;0.40;;;19.10;56.10;;;;;;5067545;28;20016;-67
2022/09/20 13:38:21;;;;;;;0.80;0.50;;;18.90;56.50;;;;;;5067885;28;20052;-67
2022/09/20 13:40:49;;;;;;;2.30;0.98;;;18.60;56.70;;;;;;5064507;28;20016;-66
2022/09/20 13:43:44;;;;;;;0.65;0.40;;;18.40;57.20;;;;;;5067488;28;20033;-67
2022/09/20 13:46:15;;;;;;;0.60;0.52;;;18.30;57.50;;;;;;5062600;28;20044;-67
2022/09/20 13:48:42;;;;;;;0.52;0.47;;;18.30;57.70;;;;;;5067024;28;20017;-67
2022/09/20 13:51:25;;;;;;;0.75;0.68;;;18.30;57.80;;;;;;5046125;28;20480;-67
2022/09/20 13:53:51;;;;;;;0.57;0.40;;;18.30;57.70;;;;;;5059098;28;20024;-67
2022/09/20 13:56:24;;;;;;;3.13;0.40;;;18.30;57.90;;;;;;5065442;28;20048;-67
2022/09/20 13:58:51;;;;;;;0.55;0.50;;;18.40;57.70;;;;;;5060561;28;20549;-67
2022/09/20 14:01:31;;;;;;;0.55;0.35;;;18.50;57.60;;;;;;5066485;28;20032;-67